sensor_id;sensor_type;location;lat;lon;timestamp;pressure;altitude;pressure_sealevel;temperature;humidity
28312;BME280;15572;48.810;9.148;2023-04-06T00:04:25;98358.03;;;-0.14;85.49
28312;BME280;15572;48.810;9.148;2023-04-06T00:09:21;98346.78;;;-0.06;85.55
28312;BME280;15572;48.810;9.148;2023-04-06T00:14:19;98347.97;;;-0.10;84.65
28312;BME280;15572;48.810;9.148;2023-04-06T00:19:16;98349.19;;;-0.14;84.88
28312;BME280;15572;48.810;9.148;2023-04-06T00:24:12;98344.59;;;-0.12;84.35
28312;BME280;15572;48.810;9.148;2023-04-06T00:29:08;98344.59;;;-0.12;85.79
28312;BME280;15572;48.810;9.148;2023-04-06T00:34:06;98350.31;;;-0.17;85.00
28312;BME280;15572;48.810;9.148;2023-04-06T00:39:03;98338.09;;;-0.19;85.44
28312;BME280;15572;48.810;9.148;2023-04-06T00:43:59;98341.72;;;-0.20;85.53
28312;BME280;15572;48.810;9.148;2023-04-06T00:48:56;98334.13;;;-0.25;84.39
28312;BME280;15572;48.810;9.148;2023-04-06T00:53:54;98330.53;;;-0.46;83.01
28312;BME280;15572;48.810;9.148;2023-04-06T00:58:50;98328.38;;;-0.52;83.23
28312;BME280;15572;48.810;9.148;2023-04-06T01:03:48;98325.97;;;-0.55;83.87
28312;BME280;15572;48.810;9.148;2023-04-06T01:08:45;98325.22;;;-0.46;83.54
28312;BME280;15572;48.810;9.148;2023-04-06T01:13:43;98323.28;;;-0.33;84.72
28312;BME280;15572;48.810;9.148;2023-04-06T01:18:39;98320.81;;;-0.25;85.54
28312;BME280;15572;48.810;9.148;2023-04-06T01:23:38;98313.31;;;-0.31;85.02
28312;BME280;15572;48.810;9.148;2023-04-06T01:28:35;98317.75;;;-0.52;83.26
28312;BME280;15572;48.810;9.148;2023-04-06T01:33:32;98317.06;;;-0.65;83.33
28312;BME280;15572;48.810;9.148;2023-04-06T01:38:29;98320.31;;;-0.62;83.33
28312;BME280;15572;48.810;9.148;2023-04-06T01:43:27;98313.06;;;-0.60;83.74
28312;BME280;15572;48.810;9.148;2023-04-06T01:48:23;98303.00;;;-0.56;84.95
28312;BME280;15572;48.810;9.148;2023-04-06T01:53:20;98308.22;;;-0.66;84.64
28312;BME280;15572;48.810;9.148;2023-04-06T01:58:16;98300.38;;;-0.78;85.34
28312;BME280;15572;48.810;9.148;2023-04-06T02:03:14;98292.19;;;-0.87;86.05
28312;BME280;15572;48.810;9.148;2023-04-06T02:08:10;98296.56;;;-0.86;87.23
28312;BME280;15572;48.810;9.148;2023-04-06T02:13:07;98306.56;;;-0.78;88.59
28312;BME280;15572;48.810;9.148;2023-04-06T02:18:04;98292.88;;;-0.73;90.01
28312;BME280;15572;48.810;9.148;2023-04-06T02:23:01;98292.41;;;-0.78;90.30
28312;BME280;15572;48.810;9.148;2023-04-06T02:27:58;98297.63;;;-0.88;90.06
28312;BME280;15572;48.810;9.148;2023-04-06T02:32:54;98286.63;;;-0.83;89.97
28312;BME280;15572;48.810;9.148;2023-04-06T02:37:51;98299.69;;;-0.80;89.94
28312;BME280;15572;48.810;9.148;2023-04-06T02:42:49;98290.13;;;-0.94;89.75
28312;BME280;15572;48.810;9.148;2023-04-06T02:47:45;98285.19;;;-0.99;89.84
28312;BME280;15572;48.810;9.148;2023-04-06T02:52:42;98282.19;;;-1.05;89.54
28312;BME280;15572;48.810;9.148;2023-04-06T02:57:38;98276.97;;;-1.07;90.84
28312;BME280;15572;48.810;9.148;2023-04-06T03:02:36;98282.19;;;-1.16;89.98
28312;BME280;15572;48.810;9.148;2023-04-06T03:07:33;98280.50;;;-1.40;90.21
28312;BME280;15572;48.810;9.148;2023-04-06T03:12:29;98279.53;;;-1.50;91.55
28312;BME280;15572;48.810;9.148;2023-04-06T03:17:26;98284.34;;;-1.44;92.58
28312;BME280;15572;48.810;9.148;2023-04-06T03:22:24;98275.53;;;-1.33;92.62
28312;BME280;15572;48.810;9.148;2023-04-06T03:27:21;98285.47;;;-1.24;92.98
28312;BME280;15572;48.810;9.148;2023-04-06T03:32:17;98277.84;;;-1.40;93.24
28312;BME280;15572;48.810;9.148;2023-04-06T03:37:14;98282.78;;;-1.57;93.45
28312;BME280;15572;48.810;9.148;2023-04-06T03:42:11;98284.69;;;-1.59;94.09
28312;BME280;15572;48.810;9.148;2023-04-06T03:47:08;98290.00;;;-1.59;94.26
28312;BME280;15572;48.810;9.148;2023-04-06T03:52:04;98286.88;;;-1.53;95.49
28312;BME280;15572;48.810;9.148;2023-04-06T03:57:01;98292.06;;;-1.52;95.04
28312;BME280;15572;48.810;9.148;2023-04-06T04:01:59;98295.56;;;-1.51;95.47
28312;BME280;15572;48.810;9.148;2023-04-06T04:06:55;98300.75;;;-1.61;96.26
28312;BME280;15572;48.810;9.148;2023-04-06T04:11:52;98299.53;;;-1.68;97.07
28312;BME280;15572;48.810;9.148;2023-04-06T04:16:49;98313.66;;;-1.67;96.96
28312;BME280;15572;48.810;9.148;2023-04-06T04:21:47;98313.41;;;-1.64;97.84
28312;BME280;15572;48.810;9.148;2023-04-06T04:26:43;98313.19;;;-1.61;98.13
28312;BME280;15572;48.810;9.148;2023-04-06T04:31:40;98315.69;;;-1.60;98.79
28312;BME280;15572;48.810;9.148;2023-04-06T04:36:36;98312.09;;;-1.59;98.60
28312;BME280;15572;48.810;9.148;2023-04-06T04:41:34;98314.16;;;-1.62;98.67
28312;BME280;15572;48.810;9.148;2023-04-06T04:46:30;98314.16;;;-1.62;98.66
28312;BME280;15572;48.810;9.148;2023-04-06T04:51:27;98314.22;;;-1.75;98.48
28312;BME280;15572;48.810;9.148;2023-04-06T04:56:25;98316.28;;;-1.79;98.88
28312;BME280;15572;48.810;9.148;2023-04-06T05:01:24;98315.47;;;-1.68;99.05
28312;BME280;15572;48.810;9.148;2023-04-06T05:06:20;98322.50;;;-1.56;99.22
28312;BME280;15572;48.810;9.148;2023-04-06T05:11:17;98316.94;;;-1.53;99.08
28312;BME280;15572;48.810;9.148;2023-04-06T05:16:13;98315.16;;;-1.41;99.39
28312;BME280;15572;48.810;9.148;2023-04-06T05:21:11;98327.00;;;-1.34;99.76
28312;BME280;15572;48.810;9.148;2023-04-06T05:26:08;98325.31;;;-1.24;98.83
28312;BME280;15572;48.810;9.148;2023-04-06T05:31:04;98334.63;;;-1.18;98.70
28312;BME280;15572;48.810;9.148;2023-04-06T05:36:01;98332.91;;;-1.08;99.15
28312;BME280;15572;48.810;9.148;2023-04-06T05:41:00;98339.09;;;-0.97;99.30
28312;BME280;15572;48.810;9.148;2023-04-06T05:45:56;98336.06;;;-0.92;99.02
28312;BME280;15572;48.810;9.148;2023-04-06T05:50:53;98340.53;;;-0.81;99.00
28312;BME280;15572;48.810;9.148;2023-04-06T05:55:49;98339.31;;;-0.77;98.61
28312;BME280;15572;48.810;9.148;2023-04-06T06:00:47;98340.53;;;-0.70;98.13
28312;BME280;15572;48.810;9.148;2023-04-06T06:05:44;98342.16;;;-0.58;98.24
28312;BME280;15572;48.810;9.148;2023-04-06T06:10:41;98354.50;;;-0.46;97.24
28312;BME280;15572;48.810;9.148;2023-04-06T06:15:38;98355.44;;;-0.36;97.18
28312;BME280;15572;48.810;9.148;2023-04-06T06:20:35;98347.19;;;-0.22;96.44
28312;BME280;15572;48.810;9.148;2023-04-06T06:25:32;98345.66;;;-0.04;96.08
28312;BME280;15572;48.810;9.148;2023-04-06T06:30:28;98349.31;;;0.16;95.41
28312;BME280;15572;48.810;9.148;2023-04-06T06:35:25;98351.88;;;0.38;94.75
28312;BME280;15572;48.810;9.148;2023-04-06T06:40:23;98344.16;;;0.56;94.09
28312;BME280;15572;48.810;9.148;2023-04-06T06:45:21;98355.66;;;0.77;93.55
28312;BME280;15572;48.810;9.148;2023-04-06T06:50:17;98362.78;;;0.98;92.56
28312;BME280;15572;48.810;9.148;2023-04-06T06:55:14;98362.88;;;1.17;91.87
28312;BME280;15572;48.810;9.148;2023-04-06T07:00:13;98355.06;;;1.35;90.97
28312;BME280;15572;48.810;9.148;2023-04-06T07:05:09;98352.88;;;1.49;90.46
28312;BME280;15572;48.810;9.148;2023-04-06T07:10:08;98362.63;;;1.69;89.90
28312;BME280;15572;48.810;9.148;2023-04-06T07:15:06;98362.53;;;1.90;88.62
28312;BME280;15572;48.810;9.148;2023-04-06T07:20:05;98367.19;;;2.07;88.12
28312;BME280;15572;48.810;9.148;2023-04-06T07:25:02;98368.47;;;2.23;87.16
28312;BME280;15572;48.810;9.148;2023-04-06T07:29:58;98366.75;;;2.41;86.30
28312;BME280;15572;48.810;9.148;2023-04-06T07:34:55;98366.91;;;2.59;85.48
28312;BME280;15572;48.810;9.148;2023-04-06T07:39:53;98364.47;;;2.75;85.13
28312;BME280;15572;48.810;9.148;2023-04-06T07:44:49;98362.47;;;2.96;83.81
28312;BME280;15572;48.810;9.148;2023-04-06T07:49:46;98364.53;;;3.12;83.30
28312;BME280;15572;48.810;9.148;2023-04-06T07:54:42;98362.94;;;3.28;82.28
28312;BME280;15572;48.810;9.148;2023-04-06T07:59:40;98359.47;;;3.46;81.68
28312;BME280;15572;48.810;9.148;2023-04-06T08:04:37;98366.56;;;3.64;81.00
28312;BME280;15572;48.810;9.148;2023-04-06T08:09:33;98360.13;;;3.85;79.51
28312;BME280;15572;48.810;9.148;2023-04-06T08:14:30;98356.78;;;4.00;78.39
28312;BME280;15572;48.810;9.148;2023-04-06T08:19:27;98367.03;;;4.22;77.97
28312;BME280;15572;48.810;9.148;2023-04-06T08:24:24;98360.00;;;4.39;77.27
28312;BME280;15572;48.810;9.148;2023-04-06T08:29:20;98364.34;;;4.58;76.24
28312;BME280;15572;48.810;9.148;2023-04-06T08:34:17;98361.84;;;4.82;75.21
28312;BME280;15572;48.810;9.148;2023-04-06T08:39:15;98350.63;;;5.04;73.81
28312;BME280;15572;48.810;9.148;2023-04-06T08:44:11;98353.06;;;5.24;72.65
28312;BME280;15572;48.810;9.148;2023-04-06T08:49:08;98358.06;;;5.44;71.60
28312;BME280;15572;48.810;9.148;2023-04-06T08:54:05;98353.16;;;5.74;70.30
28312;BME280;15572;48.810;9.148;2023-04-06T08:59:03;98353.09;;;6.00;67.75
28312;BME280;15572;48.810;9.148;2023-04-06T09:04:00;98339.03;;;6.14;63.13
28312;BME280;15572;48.810;9.148;2023-04-06T09:08:57;98342.44;;;6.40;63.02
28312;BME280;15572;48.810;9.148;2023-04-06T09:13:55;98341.06;;;6.68;61.80
28312;BME280;15572;48.810;9.148;2023-04-06T09:18:53;98333.31;;;6.90;61.58
28312;BME280;15572;48.810;9.148;2023-04-06T09:23:58;98341.06;;;7.09;57.51
28312;BME280;15572;48.810;9.148;2023-04-06T09:28:56;98331.75;;;7.28;54.66
28312;BME280;15572;48.810;9.148;2023-04-06T09:33:54;98328.69;;;7.47;53.05
28312;BME280;15572;48.810;9.148;2023-04-06T09:38:52;98333.47;;;7.68;53.64
28312;BME280;15572;48.810;9.148;2023-04-06T09:43:50;98330.13;;;7.96;53.71
28312;BME280;15572;48.810;9.148;2023-04-06T09:48:46;98327.22;;;8.29;53.00
28312;BME280;15572;48.810;9.148;2023-04-06T09:53:47;98324.88;;;8.57;52.54
28312;BME280;15572;48.810;9.148;2023-04-06T09:58:49;98321.69;;;8.76;52.40
28312;BME280;15572;48.810;9.148;2023-04-06T10:03:55;98317.81;;;8.93;50.80
28312;BME280;15572;48.810;9.148;2023-04-06T10:08:55;98316.06;;;9.00;49.04
28312;BME280;15572;48.810;9.148;2023-04-06T10:13:53;98318.97;;;9.13;48.90
28312;BME280;15572;48.810;9.148;2023-04-06T10:18:54;98312.63;;;9.36;47.38
28312;BME280;15572;48.810;9.148;2023-04-06T10:23:57;98312.53;;;9.58;45.97
28312;BME280;15572;48.810;9.148;2023-04-06T10:28:54;98303.78;;;9.56;41.65
28312;BME280;15572;48.810;9.148;2023-04-06T10:33:54;98300.34;;;9.77;43.73
28312;BME280;15572;48.810;9.148;2023-04-06T10:38:56;98302.16;;;9.91;43.72
28312;BME280;15572;48.810;9.148;2023-04-06T10:43:56;98300.53;;;10.11;42.59
28312;BME280;15572;48.810;9.148;2023-04-06T10:48:53;98292.53;;;10.39;41.92
28312;BME280;15572;48.810;9.148;2023-04-06T10:53:50;98289.16;;;10.80;41.58
28312;BME280;15572;48.810;9.148;2023-04-06T10:58:52;98285.13;;;11.25;39.98
28312;BME280;15572;48.810;9.148;2023-04-06T11:03:52;98287.63;;;12.02;40.20
28312;BME280;15572;48.810;9.148;2023-04-06T11:08:50;98290.47;;;12.48;37.85
28312;BME280;15572;48.810;9.148;2023-04-06T11:13:51;98281.47;;;12.47;34.92
28312;BME280;15572;48.810;9.148;2023-04-06T11:18:49;98272.31;;;12.88;34.40
28312;BME280;15572;48.810;9.148;2023-04-06T11:23:46;98271.31;;;13.79;35.48
28312;BME280;15572;48.810;9.148;2023-04-06T11:28:43;98259.94;;;14.71;34.13
28312;BME280;15572;48.810;9.148;2023-04-06T11:33:41;98252.47;;;15.35;32.89
28312;BME280;15572;48.810;9.148;2023-04-06T11:38:39;98255.78;;;15.18;31.42
28312;BME280;15572;48.810;9.148;2023-04-06T11:43:35;98245.25;;;15.65;29.47
28312;BME280;15572;48.810;9.148;2023-04-06T11:48:32;98244.75;;;16.05;29.76
28312;BME280;15572;48.810;9.148;2023-04-06T11:53:30;98243.63;;;15.94;28.51
28312;BME280;15572;48.810;9.148;2023-04-06T11:58:29;98238.06;;;14.85;29.65
28312;BME280;15572;48.810;9.148;2023-04-06T12:03:26;98224.22;;;16.02;30.17
28312;BME280;15572;48.810;9.148;2023-04-06T12:08:22;98232.47;;;16.55;28.33
28312;BME280;15572;48.810;9.148;2023-04-06T12:13:21;98221.28;;;15.67;28.96
28312;BME280;15572;48.810;9.148;2023-04-06T12:18:18;98221.13;;;16.40;29.58
28312;BME280;15572;48.810;9.148;2023-04-06T12:23:14;98210.22;;;17.40;28.41
28312;BME280;15572;48.810;9.148;2023-04-06T12:28:11;98208.19;;;16.89;28.01
28312;BME280;15572;48.810;9.148;2023-04-06T12:33:09;98207.06;;;17.83;27.33
28312;BME280;15572;48.810;9.148;2023-04-06T12:38:05;98195.94;;;18.29;26.84
28312;BME280;15572;48.810;9.148;2023-04-06T12:43:02;98191.31;;;18.75;26.41
28312;BME280;15572;48.810;9.148;2023-04-06T12:47:58;98195.97;;;19.29;25.77
28312;BME280;15572;48.810;9.148;2023-04-06T12:52:56;98191.94;;;19.70;25.65
28312;BME280;15572;48.810;9.148;2023-04-06T12:57:52;98190.97;;;19.82;24.65
28312;BME280;15572;48.810;9.148;2023-04-06T13:02:50;98182.06;;;19.96;24.24
28312;BME280;15572;48.810;9.148;2023-04-06T13:07:46;98188.78;;;19.84;24.82
28312;BME280;15572;48.810;9.148;2023-04-06T13:12:44;98182.31;;;18.96;23.96
28312;BME280;15572;48.810;9.148;2023-04-06T13:17:40;98171.31;;;18.46;24.66
28312;BME280;15572;48.810;9.148;2023-04-06T13:22:37;98167.97;;;17.47;25.37
28312;BME280;15572;48.810;9.148;2023-04-06T13:27:33;98164.69;;;17.22;25.85
28312;BME280;15572;48.810;9.148;2023-04-06T13:32:32;98164.41;;;18.27;26.23
28312;BME280;15572;48.810;9.148;2023-04-06T13:37:29;98153.06;;;18.85;25.89
28312;BME280;15572;48.810;9.148;2023-04-06T13:42:25;98146.22;;;19.04;25.51
28312;BME280;15572;48.810;9.148;2023-04-06T13:47:22;98151.56;;;18.94;25.46
28312;BME280;15572;48.810;9.148;2023-04-06T13:52:20;98152.69;;;18.31;23.81
28312;BME280;15572;48.810;9.148;2023-04-06T13:57:17;98151.41;;;17.65;25.15
28312;BME280;15572;48.810;9.148;2023-04-06T14:02:13;98144.75;;;17.73;26.35
28312;BME280;15572;48.810;9.148;2023-04-06T14:07:10;98133.94;;;17.95;25.91
28312;BME280;15572;48.810;9.148;2023-04-06T14:12:07;98134.78;;;17.44;26.44
28312;BME280;15572;48.810;9.148;2023-04-06T14:17:04;98131.88;;;17.10;26.52
28312;BME280;15572;48.810;9.148;2023-04-06T14:22:00;98134.75;;;16.92;27.96
28312;BME280;15572;48.810;9.148;2023-04-06T14:26:57;98129.03;;;16.70;27.92
28312;BME280;15572;48.810;9.148;2023-04-06T14:31:55;98128.78;;;16.07;28.73
28312;BME280;15572;48.810;9.148;2023-04-06T14:36:55;98139.97;;;15.57;28.24
28312;BME280;15572;48.810;9.148;2023-04-06T14:41:51;98128.81;;;14.86;27.83
28312;BME280;15572;48.810;9.148;2023-04-06T14:46:48;98123.22;;;15.17;27.75
28312;BME280;15572;48.810;9.148;2023-04-06T14:51:46;98124.31;;;15.53;29.65
28312;BME280;15572;48.810;9.148;2023-04-06T14:56:43;98121.13;;;15.86;29.01
28312;BME280;15572;48.810;9.148;2023-04-06T15:01:39;98115.19;;;15.89;28.28
28312;BME280;15572;48.810;9.148;2023-04-06T15:06:36;98112.28;;;16.14;28.69
28312;BME280;15572;48.810;9.148;2023-04-06T15:11:33;98121.72;;;15.58;27.67
28312;BME280;15572;48.810;9.148;2023-04-06T15:16:30;98119.28;;;15.32;28.79
28312;BME280;15572;48.810;9.148;2023-04-06T15:21:27;98117.72;;;15.06;29.08
28312;BME280;15572;48.810;9.148;2023-04-06T15:26:23;98112.00;;;14.71;29.52
28312;BME280;15572;48.810;9.148;2023-04-06T15:31:22;98120.28;;;15.01;29.67
28312;BME280;15572;48.810;9.148;2023-04-06T15:36:23;98121.94;;;14.84;29.45
28312;BME280;15572;48.810;9.148;2023-04-06T15:41:21;98111.31;;;14.75;29.50
28312;BME280;15572;48.810;9.148;2023-04-06T15:46:18;98119.41;;;14.32;29.32
28312;BME280;15572;48.810;9.148;2023-04-06T15:51:16;98126.84;;;14.25;30.30
28312;BME280;15572;48.810;9.148;2023-04-06T15:56:12;98120.75;;;14.23;30.58
28312;BME280;15572;48.810;9.148;2023-04-06T16:01:10;98119.59;;;14.13;29.60
28312;BME280;15572;48.810;9.148;2023-04-06T16:06:08;98116.50;;;13.78;30.86
28312;BME280;15572;48.810;9.148;2023-04-06T16:11:06;98125.72;;;13.26;30.92
28312;BME280;15572;48.810;9.148;2023-04-06T16:16:03;98136.63;;;13.06;31.86
28312;BME280;15572;48.810;9.148;2023-04-06T16:21:00;98126.44;;;12.95;32.13
28312;BME280;15572;48.810;9.148;2023-04-06T16:25:56;98131.91;;;12.69;32.53
28312;BME280;15572;48.810;9.148;2023-04-06T16:30:54;98131.13;;;12.55;32.20
28312;BME280;15572;48.810;9.148;2023-04-06T16:35:52;98133.81;;;12.48;33.23
28312;BME280;15572;48.810;9.148;2023-04-06T16:40:48;98135.91;;;12.40;34.56
28312;BME280;15572;48.810;9.148;2023-04-06T16:45:55;98137.38;;;12.16;35.49
28312;BME280;15572;48.810;9.148;2023-04-06T16:50:52;98142.38;;;12.06;36.40
28312;BME280;15572;48.810;9.148;2023-04-06T16:55:48;98137.97;;;11.92;37.21
28312;BME280;15572;48.810;9.148;2023-04-06T17:00:45;98137.75;;;11.80;38.28
28312;BME280;15572;48.810;9.148;2023-04-06T17:05:42;98130.56;;;11.66;37.06
28312;BME280;15572;48.810;9.148;2023-04-06T17:10:39;98135.94;;;11.46;35.19
28312;BME280;15572;48.810;9.148;2023-04-06T17:15:35;98148.00;;;11.37;35.56
28312;BME280;15572;48.810;9.148;2023-04-06T17:20:32;98146.50;;;11.28;35.40
28312;BME280;15572;48.810;9.148;2023-04-06T17:25:30;98145.44;;;11.22;34.83
28312;BME280;15572;48.810;9.148;2023-04-06T17:30:27;98149.16;;;11.15;34.37
28312;BME280;15572;48.810;9.148;2023-04-06T17:35:23;98152.88;;;11.07;34.16
28312;BME280;15572;48.810;9.148;2023-04-06T17:40:20;98153.47;;;11.03;34.31
28312;BME280;15572;48.810;9.148;2023-04-06T17:45:18;98154.50;;;10.95;34.77
28312;BME280;15572;48.810;9.148;2023-04-06T17:50:15;98160.09;;;10.93;35.17
28312;BME280;15572;48.810;9.148;2023-04-06T17:55:11;98171.53;;;10.89;35.66
28312;BME280;15572;48.810;9.148;2023-04-06T18:00:09;98173.63;;;10.93;35.95
28312;BME280;15572;48.810;9.148;2023-04-06T18:05:10;98185.69;;;10.84;36.53
28312;BME280;15572;48.810;9.148;2023-04-06T18:10:08;98187.84;;;11.02;36.46
28312;BME280;15572;48.810;9.148;2023-04-06T18:15:05;98180.00;;;10.79;37.29
28312;BME280;15572;48.810;9.148;2023-04-06T18:20:02;98183.66;;;10.65;37.40
28312;BME280;15572;48.810;9.148;2023-04-06T18:25:00;98182.75;;;10.58;38.02
28312;BME280;15572;48.810;9.148;2023-04-06T18:29:56;98190.25;;;10.56;38.08
28312;BME280;15572;48.810;9.148;2023-04-06T18:34:54;98193.34;;;10.53;38.35
28312;BME280;15572;48.810;9.148;2023-04-06T18:39:51;98202.88;;;10.49;38.53
28312;BME280;15572;48.810;9.148;2023-04-06T18:44:50;98193.69;;;10.43;38.82
28312;BME280;15572;48.810;9.148;2023-04-06T18:49:46;98204.69;;;10.42;38.74
28312;BME280;15572;48.810;9.148;2023-04-06T18:54:44;98202.38;;;10.39;38.47
28312;BME280;15572;48.810;9.148;2023-04-06T18:59:40;98204.44;;;10.37;39.57
28312;BME280;15572;48.810;9.148;2023-04-06T19:04:38;98206.91;;;10.32;39.38
28312;BME280;15572;48.810;9.148;2023-04-06T19:09:35;98211.22;;;10.26;41.15
28312;BME280;15572;48.810;9.148;2023-04-06T19:14:32;98221.59;;;10.23;41.85
28312;BME280;15572;48.810;9.148;2023-04-06T19:19:28;98223.13;;;10.32;40.72
28312;BME280;15572;48.810;9.148;2023-04-06T19:24:26;98227.25;;;10.28;40.06
28312;BME280;15572;48.810;9.148;2023-04-06T19:29:24;98230.00;;;10.13;40.49
28312;BME280;15572;48.810;9.148;2023-04-06T19:34:21;98229.75;;;10.08;40.96
28312;BME280;15572;48.810;9.148;2023-04-06T19:39:18;98226.78;;;10.03;41.02
28312;BME280;15572;48.810;9.148;2023-04-06T19:44:16;98223.25;;;10.02;41.56
28312;BME280;15572;48.810;9.148;2023-04-06T19:49:13;98224.53;;;10.06;41.12
28312;BME280;15572;48.810;9.148;2023-04-06T19:54:09;98228.66;;;10.02;42.30
28312;BME280;15572;48.810;9.148;2023-04-06T19:59:06;98228.81;;;10.01;43.36
28312;BME280;15572;48.810;9.148;2023-04-06T20:04:06;98231.19;;;9.89;43.71
28312;BME280;15572;48.810;9.148;2023-04-06T20:09:02;98232.75;;;9.77;44.35
28312;BME280;15572;48.810;9.148;2023-04-06T20:13:59;98235.94;;;9.66;45.00
28312;BME280;15572;48.810;9.148;2023-04-06T20:18:56;98232.13;;;9.60;45.21
28312;BME280;15572;48.810;9.148;2023-04-06T20:23:53;98236.41;;;9.55;45.47
28312;BME280;15572;48.810;9.148;2023-04-06T20:28:50;98230.00;;;9.56;45.92
28312;BME280;15572;48.810;9.148;2023-04-06T20:33:46;98229.34;;;9.54;46.37
28312;BME280;15572;48.810;9.148;2023-04-06T20:38:43;98239.31;;;9.53;47.90
28312;BME280;15572;48.810;9.148;2023-04-06T20:43:41;98248.16;;;9.47;48.78
28312;BME280;15572;48.810;9.148;2023-04-06T20:48:37;98246.88;;;9.43;51.31
28312;BME280;15572;48.810;9.148;2023-04-06T20:53:34;98242.88;;;9.39;51.84
28312;BME280;15572;48.810;9.148;2023-04-06T20:58:30;98240.16;;;9.24;53.35
28312;BME280;15572;48.810;9.148;2023-04-06T21:03:28;98236.72;;;9.16;54.45
28312;BME280;15572;48.810;9.148;2023-04-06T21:08:24;98245.66;;;9.16;56.51
28312;BME280;15572;48.810;9.148;2023-04-06T21:13:21;98244.84;;;9.01;58.85
28312;BME280;15572;48.810;9.148;2023-04-06T21:18:17;98247.13;;;8.75;62.25
28312;BME280;15572;48.810;9.148;2023-04-06T21:23:15;98243.28;;;8.55;65.30
28312;BME280;15572;48.810;9.148;2023-04-06T21:28:12;98244.59;;;8.36;69.53
28312;BME280;15572;48.810;9.148;2023-04-06T21:33:08;98248.28;;;8.12;76.40
28312;BME280;15572;48.810;9.148;2023-04-06T21:38:05;98243.88;;;7.66;86.19
28312;BME280;15572;48.810;9.148;2023-04-06T21:43:03;98239.63;;;7.40;84.02
28312;BME280;15572;48.810;9.148;2023-04-06T21:48:00;98236.63;;;7.35;88.86
28312;BME280;15572;48.810;9.148;2023-04-06T21:52:56;98240.69;;;7.31;91.38
28312;BME280;15572;48.810;9.148;2023-04-06T21:57:53;98239.53;;;7.26;92.53
28312;BME280;15572;48.810;9.148;2023-04-06T22:02:50;98234.53;;;7.14;92.95
28312;BME280;15572;48.810;9.148;2023-04-06T22:07:47;98236.22;;;7.15;93.46
28312;BME280;15572;48.810;9.148;2023-04-06T22:12:43;98236.38;;;7.14;93.33
28312;BME280;15572;48.810;9.148;2023-04-06T22:17:40;98228.13;;;7.15;93.34
28312;BME280;15572;48.810;9.148;2023-04-06T22:22:38;98227.09;;;7.16;94.54
28312;BME280;15572;48.810;9.148;2023-04-06T22:27:34;98219.88;;;7.17;96.61
28312;BME280;15572;48.810;9.148;2023-04-06T22:32:31;98225.50;;;6.99;100.00
28312;BME280;15572;48.810;9.148;2023-04-06T22:37:27;98219.31;;;6.83;100.00
28312;BME280;15572;48.810;9.148;2023-04-06T22:42:25;98213.31;;;6.72;100.00
28312;BME280;15572;48.810;9.148;2023-04-06T22:47:21;98211.28;;;6.66;100.00
28312;BME280;15572;48.810;9.148;2023-04-06T22:52:18;98206.91;;;6.57;100.00
28312;BME280;15572;48.810;9.148;2023-04-06T22:57:14;98203.56;;;6.55;100.00
28312;BME280;15572;48.810;9.148;2023-04-06T23:02:12;98201.41;;;6.51;100.00
28312;BME280;15572;48.810;9.148;2023-04-06T23:07:10;98191.63;;;6.58;100.00
28312;BME280;15572;48.810;9.148;2023-04-06T23:12:15;98181.38;;;6.61;100.00
28312;BME280;15572;48.810;9.148;2023-04-06T23:17:13;98173.16;;;6.55;100.00
28312;BME280;15572;48.810;9.148;2023-04-06T23:22:09;98160.38;;;6.49;100.00
28312;BME280;15572;48.810;9.148;2023-04-06T23:27:06;98161.22;;;6.49;100.00
28312;BME280;15572;48.810;9.148;2023-04-06T23:32:02;98154.84;;;6.50;100.00
28312;BME280;15572;48.810;9.148;2023-04-06T23:37:00;98159.69;;;6.55;100.00
28312;BME280;15572;48.810;9.148;2023-04-06T23:41:57;98151.47;;;6.56;100.00
28312;BME280;15572;48.810;9.148;2023-04-06T23:46:53;98150.41;;;6.65;100.00
28312;BME280;15572;48.810;9.148;2023-04-06T23:51:50;98137.97;;;6.64;100.00
28312;BME280;15572;48.810;9.148;2023-04-06T23:56:47;98131.59;;;6.57;100.00
